Time;durP1;ratioP1;P1;durP2;ratioP2;P2;SDS_P1;SDS_P2;PMS_P1;PMS_P2;Temp;Humidity;BMP_temperature;BMP_pressure;BME280_temperature;BME280_humidity;BME280_pressure;Samples;Min_cycle;Max_cycle;Signal;HPM_P1;HPM_P2
2022/04/02 00:01:12;;;;;;;25.67;6.67;;;14.10;99.90;;;;;;5036656;28;20192;-65
2022/04/02 00:03:38;;;;;;;23.67;5.87;;;14.10;99.90;;;;;;5036554;28;20187;-65
2022/04/02 00:06:05;;;;;;;30.43;5.33;;;14.10;99.90;;;;;;5039728;28;20195;-65
2022/04/02 00:08:31;;;;;;;28.07;6.43;;;14.10;99.90;;;;;;5045006;28;20651;-64
2022/04/02 00:10:58;;;;;;;24.33;5.73;;;14.10;99.90;;;;;;5045764;28;20229;-64
2022/04/02 00:13:24;;;;;;;21.33;6.53;;;14.10;99.90;;;;;;5042912;28;20922;-64
2022/04/02 00:15:51;;;;;;;23.87;5.60;;;14.10;99.90;;;;;;5036043;28;20241;-64
2022/04/02 00:18:17;;;;;;;31.43;5.90;;;14.10;99.90;;;;;;5036462;28;20200;-65
2022/04/02 00:20:43;;;;;;;28.67;5.47;;;14.10;99.90;;;;;;5041818;28;20202;-64
2022/04/02 00:25:55;;;;;;;20.37;5.63;;;14.00;99.90;;;;;;5046016;28;20191;-64
2022/04/02 00:28:21;;;;;;;19.80;5.77;;;14.00;99.90;;;;;;5038163;28;20245;-64
2022/04/02 00:30:47;;;;;;;28.80;5.33;;;14.00;99.90;;;;;;5044289;28;20195;-65
2022/04/02 00:33:13;;;;;;;34.77;5.67;;;14.00;99.90;;;;;;5033734;28;20192;-65
2022/04/02 00:35:40;;;;;;;24.77;5.83;;;14.00;99.90;;;;;;5034565;28;20226;-64
2022/04/02 00:38:07;;;;;;;29.93;5.27;;;14.00;99.90;;;;;;5039325;28;20308;-64
2022/04/02 00:40:34;;;;;;;26.67;4.73;;;13.90;99.90;;;;;;5058980;28;20311;-63
2022/04/02 00:43:00;;;;;;;20.20;5.23;;;13.80;99.90;;;;;;5025685;28;20184;-66
2022/04/02 00:45:27;;;;;;;21.57;4.80;;;13.80;99.90;;;;;;5042107;28;20648;-64
2022/04/02 00:47:53;;;;;;;27.97;5.37;;;13.80;99.90;;;;;;5025234;28;20194;-65
2022/04/02 00:50:20;;;;;;;21.50;4.97;;;13.70;99.90;;;;;;5046429;28;20265;-64
2022/04/02 00:52:46;;;;;;;23.20;5.07;;;13.70;99.90;;;;;;5043293;28;20662;-65
2022/04/02 00:55:13;;;;;;;21.70;4.93;;;13.70;99.90;;;;;;5045531;28;20274;-64
2022/04/02 00:57:39;;;;;;;25.33;4.90;;;13.60;99.90;;;;;;5049711;28;20191;-65
2022/04/02 01:00:07;;;;;;;25.13;5.13;;;13.70;99.90;;;;;;5048746;28;20646;-65
2022/04/02 01:02:34;;;;;;;30.53;5.37;;;13.80;99.90;;;;;;5051399;28;20505;-64
2022/04/02 01:05:01;;;;;;;20.53;5.00;;;13.90;99.90;;;;;;5044180;28;20198;-65
2022/04/02 01:07:28;;;;;;;18.13;5.10;;;14.00;99.90;;;;;;5043452;28;20192;-64
2022/04/02 01:09:54;;;;;;;27.47;5.23;;;14.10;99.90;;;;;;5052215;28;20183;-63
2022/04/02 01:12:25;;;;;;;24.50;4.77;;;14.20;99.90;;;;;;5036748;28;20196;-64
2022/04/02 01:14:52;;;;;;;22.07;4.97;;;14.40;98.80;;;;;;5044484;28;20192;-65
2022/04/02 01:17:18;;;;;;;19.27;4.77;;;14.60;98.00;;;;;;5050977;28;20234;-63
2022/04/02 01:19:45;;;;;;;26.43;4.33;;;14.80;96.30;;;;;;5043701;28;20249;-65
2022/04/02 01:22:11;;;;;;;29.23;5.63;;;15.00;96.20;;;;;;5049056;28;20179;-64
2022/04/02 01:24:37;;;;;;;22.33;4.77;;;15.10;97.40;;;;;;5037840;28;20225;-66
2022/04/02 01:27:04;;;;;;;28.07;4.50;;;15.20;96.00;;;;;;5044757;28;20198;-65
2022/04/02 01:29:34;;;;;;;27.23;5.03;;;15.20;96.60;;;;;;5040090;28;20198;-64
2022/04/02 01:32:01;;;;;;;28.07;4.67;;;15.20;98.90;;;;;;5042391;28;20271;-64
2022/04/02 01:34:31;;;;;;;21.83;4.73;;;15.10;99.30;;;;;;5046812;28;20191;-65
2022/04/02 01:36:57;;;;;;;27.23;5.83;;;15.00;99.90;;;;;;5048866;28;20223;-64
2022/04/02 01:39:24;;;;;;;19.50;4.93;;;14.80;99.90;;;;;;5043682;28;20220;-65
2022/04/02 01:41:50;;;;;;;23.37;4.63;;;14.60;99.90;;;;;;5034903;28;20184;-65
2022/04/02 01:44:16;;;;;;;24.17;5.10;;;14.50;98.80;;;;;;5062214;28;20191;-64
2022/04/02 01:46:43;;;;;;;17.63;4.60;;;14.50;97.60;;;;;;5050409;28;20274;-64
2022/04/02 01:49:09;;;;;;;22.97;4.67;;;14.50;97.60;;;;;;5043687;28;20633;-64
2022/04/02 01:51:35;;;;;;;28.50;5.00;;;14.60;98.20;;;;;;5037454;28;20242;-64
2022/04/02 01:54:01;;;;;;;23.17;4.97;;;14.70;97.80;;;;;;5045791;28;20651;-64
2022/04/02 01:56:28;;;;;;;27.93;6.40;;;14.90;97.90;;;;;;5045280;28;20201;-65
2022/04/02 01:58:54;;;;;;;18.70;5.07;;;15.10;98.40;;;;;;5060631;28;20223;-64
2022/04/02 02:01:21;;;;;;;22.97;5.63;;;15.10;99.10;;;;;;5037505;28;20210;-64
2022/04/02 02:03:47;;;;;;;29.70;5.50;;;15.10;99.40;;;;;;5042000;28;20216;-65
2022/04/02 02:06:13;;;;;;;24.17;4.53;;;15.00;99.90;;;;;;5038164;28;20188;-64
2022/04/02 02:08:40;;;;;;;21.57;5.13;;;15.00;98.70;;;;;;5042220;28;20290;-64
2022/04/02 02:11:06;;;;;;;24.80;5.50;;;15.00;98.50;;;;;;5043075;28;20198;-64
2022/04/02 02:13:32;;;;;;;34.90;5.50;;;15.00;98.40;;;;;;5048383;28;20202;-64
2022/04/02 02:15:58;;;;;;;22.87;4.97;;;15.00;98.80;;;;;;5040301;28;20291;-64
2022/04/02 02:18:25;;;;;;;18.60;4.30;;;15.00;99.10;;;;;;5038655;28;20207;-64
2022/04/02 02:20:51;;;;;;;22.00;5.10;;;14.90;99.90;;;;;;5047833;28;20187;-65
2022/04/02 02:23:17;;;;;;;20.60;5.27;;;14.90;99.90;;;;;;5041816;28;20204;-65
2022/04/02 02:25:43;;;;;;;36.53;5.83;;;14.70;99.90;;;;;;5048435;28;20191;-65
2022/04/02 02:28:10;;;;;;;24.77;4.70;;;14.60;99.90;;;;;;5037178;28;20286;-66
2022/04/02 02:30:36;;;;;;;21.83;4.77;;;14.60;99.90;;;;;;5049655;28;20932;-64
2022/04/02 02:35:50;;;;;;;16.17;4.93;;;14.50;99.90;;;;;;5042536;28;20417;-64
2022/04/02 02:38:19;;;;;;;21.23;4.97;;;14.40;99.90;;;;;;5043817;28;20226;-65
2022/04/02 02:40:46;;;;;;;21.50;5.53;;;14.30;99.90;;;;;;5042352;28;20656;-64
2022/04/02 02:43:12;;;;;;;19.47;4.67;;;14.20;99.90;;;;;;5036228;28;20191;-63
2022/04/02 02:45:38;;;;;;;29.00;4.97;;;14.10;99.90;;;;;;5046481;28;20188;-65
2022/04/02 02:48:05;;;;;;;24.97;5.03;;;14.10;99.90;;;;;;5042013;28;20187;-64
2022/04/02 02:50:32;;;;;;;21.03;5.40;;;13.90;99.90;;;;;;5042829;28;20190;-64
2022/04/02 02:52:59;;;;;;;20.07;4.97;;;13.80;99.90;;;;;;5031699;28;20248;-64
2022/04/02 02:55:25;;;;;;;22.67;5.33;;;13.70;99.90;;;;;;5039793;28;20206;-64
2022/04/02 02:57:52;;;;;;;27.13;5.13;;;13.70;99.90;;;;;;5039131;28;20192;-64
2022/04/02 03:00:21;;;;;;;23.50;5.10;;;13.60;99.90;;;;;;5044554;28;20276;-64
2022/04/02 03:02:48;;;;;;;23.23;5.53;;;13.60;99.90;;;;;;5042996;28;20191;-65
2022/04/02 03:05:18;;;;;;;35.30;6.40;;;13.60;99.90;;;;;;5042352;28;20244;-65
2022/04/02 03:07:49;;;;;;;21.50;5.03;;;13.60;99.90;;;;;;5046752;28;20328;-64
2022/04/02 03:10:28;;;;;;;23.23;5.10;;;13.60;99.90;;;;;;5042872;28;20199;-64
2022/04/02 03:12:57;;;;;;;23.73;5.30;;;13.60;99.90;;;;;;5040669;28;20342;-64
2022/04/02 03:15:25;;;;;;;21.80;5.23;;;13.70;99.90;;;;;;5039744;28;20322;-64
2022/04/02 03:17:53;;;;;;;22.17;6.30;;;13.50;99.90;;;;;;5036687;28;20867;-64
2022/04/02 03:20:22;;;;;;;25.83;5.73;;;13.50;99.90;;;;;;5047366;28;20699;-65
2022/04/02 03:22:51;;;;;;;28.77;5.47;;;13.50;99.90;;;;;;5033092;28;20180;-65
2022/04/02 03:25:21;;;;;;;21.97;6.07;;;13.60;99.90;;;;;;5039655;28;20191;-65
2022/04/02 03:27:48;;;;;;;25.13;4.93;;;13.50;99.90;;;;;;5037512;28;20218;-63
2022/04/02 03:30:21;;;;;;;23.30;5.70;;;13.50;99.90;;;;;;5047842;28;20192;-65
2022/04/02 03:32:48;;;;;;;25.30;6.00;;;13.50;99.90;;;;;;5044952;28;20723;-64
2022/04/02 03:35:15;;;;;;;23.10;5.10;;;13.50;99.90;;;;;;5040830;28;20249;-64
2022/04/02 03:37:50;;;;;;;29.47;6.10;;;13.50;99.90;;;;;;5028071;28;20211;-64
2022/04/02 03:40:21;;;;;;;17.07;5.10;;;13.50;99.90;;;;;;5041892;28;20260;-65
2022/04/02 03:42:48;;;;;;;15.90;5.00;;;13.60;99.90;;;;;;5035730;28;20259;-64
2022/04/02 03:45:18;;;;;;;24.87;5.87;;;13.60;99.90;;;;;;5041715;28;20192;-65
2022/04/02 03:47:45;;;;;;;30.43;6.03;;;13.70;99.90;;;;;;5043328;28;20191;-64
2022/04/02 03:50:12;;;;;;;22.33;5.13;;;13.70;99.90;;;;;;5037678;28;20272;-65
2022/04/02 03:52:39;;;;;;;24.60;5.17;;;13.80;99.90;;;;;;5037045;28;20195;-65
2022/04/02 03:55:07;;;;;;;29.43;5.40;;;13.90;99.90;;;;;;5045987;28;20223;-64
2022/04/02 03:57:34;;;;;;;18.63;4.73;;;14.00;99.90;;;;;;5040819;28;20191;-65
2022/04/02 04:00:04;;;;;;;14.83;5.37;;;14.20;99.90;;;;;;5038010;28;20224;-64
2022/04/02 04:02:30;;;;;;;31.20;5.60;;;14.20;99.90;;;;;;5044958;28;20180;-64
2022/04/02 04:04:58;;;;;;;21.73;5.03;;;14.20;99.90;;;;;;5060588;28;20179;-64
2022/04/02 04:07:24;;;;;;;18.40;5.47;;;14.20;99.90;;;;;;5042419;28;20670;-65
2022/04/02 04:09:50;;;;;;;25.43;5.37;;;14.20;99.90;;;;;;5042499;28;20191;-65
2022/04/02 04:12:17;;;;;;;20.43;5.97;;;14.20;99.90;;;;;;5048601;28;20536;-64
2022/04/02 04:14:45;;;;;;;20.27;5.27;;;14.10;99.90;;;;;;5039434;28;20210;-65
2022/04/02 04:17:11;;;;;;;27.17;6.07;;;14.10;99.90;;;;;;5038489;28;20198;-64
2022/04/02 04:19:38;;;;;;;25.07;5.77;;;14.10;99.90;;;;;;5043591;28;20203;-64
2022/04/02 04:22:06;;;;;;;20.80;5.30;;;14.00;99.90;;;;;;5044996;28;20674;-66
2022/04/02 04:24:33;;;;;;;24.43;5.70;;;14.00;99.90;;;;;;5050523;28;20302;-64
2022/04/02 04:27:00;;;;;;;20.83;5.30;;;14.00;99.90;;;;;;5041911;28;20207;-64
2022/04/02 04:29:26;;;;;;;24.13;5.90;;;14.00;99.90;;;;;;5029907;28;20604;-65
2022/04/02 04:31:56;;;;;;;17.17;5.47;;;14.00;99.90;;;;;;5057667;28;20188;-64
2022/04/02 04:34:22;;;;;;;28.00;5.97;;;14.00;99.90;;;;;;5047969;28;20245;-66
2022/04/02 04:36:49;;;;;;;31.40;6.03;;;14.00;99.90;;;;;;5046243;28;20402;-65
2022/04/02 04:39:15;;;;;;;21.00;5.63;;;14.10;99.90;;;;;;5042495;28;20311;-65
2022/04/02 04:41:41;;;;;;;29.30;5.43;;;14.10;99.90;;;;;;5026156;28;20188;-64
2022/04/02 04:44:08;;;;;;;28.47;5.50;;;14.20;99.90;;;;;;5045417;28;20175;-64
2022/04/02 04:46:34;;;;;;;20.67;4.83;;;14.30;99.90;;;;;;5039802;28;20263;-64
2022/04/02 04:49:01;;;;;;;20.03;5.13;;;14.30;99.90;;;;;;5042733;28;20188;-65
2022/04/02 04:51:28;;;;;;;21.73;5.43;;;14.30;99.90;;;;;;5041543;28;20199;-65
2022/04/02 04:53:54;;;;;;;21.80;5.70;;;14.30;99.90;;;;;;5041231;28;20196;-64
2022/04/02 04:56:21;;;;;;;27.17;6.17;;;14.30;99.90;;;;;;5047550;28;20207;-64
2022/04/02 04:58:47;;;;;;;26.60;5.70;;;14.40;99.90;;;;;;5041542;28;20219;-64
2022/04/02 05:01:14;;;;;;;23.53;6.27;;;14.40;99.90;;;;;;5043321;28;20683;-65
2022/04/02 05:03:40;;;;;;;21.70;5.50;;;14.40;99.90;;;;;;5048824;28;20198;-66
2022/04/02 05:06:11;;;;;;;25.63;6.27;;;14.40;99.90;;;;;;5048421;28;20274;-64
2022/04/02 05:08:37;;;;;;;24.23;5.40;;;14.50;99.90;;;;;;5051392;28;20179;-65
2022/04/02 05:11:04;;;;;;;23.57;5.20;;;14.60;99.90;;;;;;5040349;28;20271;-65
2022/04/02 05:13:30;;;;;;;24.43;5.50;;;14.60;99.90;;;;;;5043334;28;20218;-65
2022/04/02 05:15:57;;;;;;;20.80;5.77;;;14.70;99.90;;;;;;5046400;28;20196;-66
2022/04/02 05:18:23;;;;;;;29.03;5.70;;;14.80;99.90;;;;;;5048190;28;20183;-65
2022/04/02 05:20:50;;;;;;;28.13;5.77;;;14.90;99.90;;;;;;5040417;28;20192;-64
2022/04/02 05:23:16;;;;;;;24.63;5.40;;;15.00;99.90;;;;;;5046354;28;20190;-65
2022/04/02 05:25:42;;;;;;;20.87;5.20;;;15.10;99.90;;;;;;5042017;28;20672;-65
2022/04/02 05:28:09;;;;;;;25.93;5.90;;;15.20;99.90;;;;;;5047735;28;20184;-65
2022/04/02 05:30:39;;;;;;;25.87;5.83;;;15.20;99.90;;;;;;5046094;28;20256;-64
2022/04/02 05:33:07;;;;;;;30.30;7.03;;;15.30;99.90;;;;;;5046971;28;20191;-64
2022/04/02 05:35:33;;;;;;;29.10;6.83;;;15.30;99.90;;;;;;5043753;28;20215;-65
2022/04/02 05:38:00;;;;;;;23.03;6.93;;;15.40;99.90;;;;;;5048115;28;20212;-65
2022/04/02 05:40:27;;;;;;;30.27;6.90;;;15.50;99.90;;;;;;5025226;28;20277;-64
2022/04/02 05:42:53;;;;;;;22.73;6.17;;;15.60;99.90;;;;;;5045811;28;20642;-65
2022/04/02 05:45:21;;;;;;;22.20;6.20;;;15.70;99.90;;;;;;5025521;28;20536;-65
2022/04/02 05:47:50;;;;;;;27.13;6.03;;;15.70;99.90;;;;;;5042216;28;20314;-65
2022/04/02 05:50:20;;;;;;;24.53;6.23;;;15.80;99.90;;;;;;5041635;28;20648;-64
2022/04/02 05:52:49;;;;;;;22.00;5.47;;;15.80;99.90;;;;;;5036497;28;20282;-65
2022/04/02 05:55:17;;;;;;;19.43;6.00;;;15.90;99.90;;;;;;5039415;28;20188;-65
2022/04/02 05:57:45;;;;;;;22.30;5.73;;;16.00;99.90;;;;;;5037456;28;20521;-64
2022/04/02 06:00:16;;;;;;;20.77;5.27;;;16.00;99.90;;;;;;5036399;28;20207;-65
2022/04/02 06:02:43;;;;;;;22.90;5.40;;;16.10;99.90;;;;;;5038358;28;20241;-65
2022/04/02 06:05:13;;;;;;;24.20;5.13;;;16.30;99.90;;;;;;5041693;28;20245;-64
2022/04/02 06:07:41;;;;;;;19.50;5.00;;;16.40;99.90;;;;;;5037693;28;20299;-64
2022/04/02 06:10:09;;;;;;;26.23;5.70;;;16.60;99.90;;;;;;5042189;28;20195;-64
2022/04/02 06:12:35;;;;;;;23.50;5.33;;;16.70;99.90;;;;;;5035511;28;20926;-64
2022/04/02 06:15:02;;;;;;;28.60;5.50;;;16.80;99.90;;;;;;5043619;28;20526;-62
2022/04/02 06:17:28;;;;;;;27.73;4.80;;;16.90;99.90;;;;;;5030153;28;20195;-65
2022/04/02 06:19:55;;;;;;;25.20;5.33;;;16.90;99.90;;;;;;5040313;28;20302;-65
2022/04/02 06:22:21;;;;;;;25.13;5.10;;;17.00;99.90;;;;;;5037502;28;20655;-65
2022/04/02 06:24:47;;;;;;;30.27;5.53;;;17.00;99.90;;;;;;5033046;28;20955;-65
2022/04/02 06:27:14;;;;;;;29.50;5.57;;;17.00;99.90;;;;;;5039762;28;20190;-64
2022/04/02 06:29:40;;;;;;;25.87;4.93;;;17.10;99.90;;;;;;5038093;28;20601;-64
2022/04/02 06:32:07;;;;;;;22.70;5.30;;;17.20;99.90;;;;;;5044268;28;20274;-64
2022/04/02 06:34:33;;;;;;;23.47;5.30;;;17.20;99.90;;;;;;5042397;28;20238;-65
2022/04/02 06:37:00;;;;;;;31.87;5.70;;;17.30;99.90;;;;;;5039606;28;20227;-66
2022/04/02 06:39:27;;;;;;;28.97;4.87;;;17.30;99.90;;;;;;5043085;28;20313;-65
2022/04/02 06:41:53;;;;;;;27.87;4.73;;;17.40;99.90;;;;;;5034863;28;20192;-66
2022/04/02 06:44:20;;;;;;;25.63;5.70;;;17.40;99.90;;;;;;5029127;28;20215;-65
2022/04/02 06:46:46;;;;;;;22.03;5.00;;;17.50;99.90;;;;;;5036263;28;20198;-64
2022/04/02 06:49:13;;;;;;;26.30;5.40;;;17.60;99.90;;;;;;5043041;28;20683;-64
2022/04/02 06:51:39;;;;;;;33.83;5.40;;;17.80;99.90;;;;;;5044364;28;20188;-64
2022/04/02 06:54:07;;;;;;;24.63;5.37;;;17.90;99.90;;;;;;5048857;28;20544;-65
2022/04/02 06:56:35;;;;;;;24.87;5.93;;;18.00;99.90;;;;;;5044132;28;20283;-65
2022/04/02 06:59:02;;;;;;;21.80;5.40;;;18.10;99.90;;;;;;5043189;28;20204;-66
2022/04/02 07:01:28;;;;;;;35.27;5.87;;;18.10;99.90;;;;;;5041759;28;20184;-65
2022/04/02 07:03:55;;;;;;;25.80;5.37;;;18.10;99.90;;;;;;5034314;28;20192;-65
2022/04/02 07:06:21;;;;;;;28.87;5.77;;;18.10;99.90;;;;;;5038502;28;20190;-64
2022/04/02 07:08:50;;;;;;;20.87;5.20;;;18.10;99.90;;;;;;5040844;28;20233;-64
2022/04/02 07:11:16;;;;;;;28.87;5.73;;;18.20;99.90;;;;;;5038497;28;20293;-65
2022/04/02 07:13:43;;;;;;;24.30;5.20;;;18.20;99.90;;;;;;5035086;28;20214;-65
2022/04/02 07:16:09;;;;;;;23.77;5.67;;;18.20;99.90;;;;;;5035276;28;20187;-65
2022/04/02 07:18:44;;;;;;;28.23;5.63;;;18.30;99.90;;;;;;5039813;28;20370;-64
2022/04/02 07:21:14;;;;;;;31.93;6.43;;;18.30;99.90;;;;;;5034436;28;20188;-65
2022/04/02 07:23:45;;;;;;;26.77;5.60;;;18.40;99.90;;;;;;5041955;28;20717;-65
2022/04/02 07:26:12;;;;;;;22.07;5.57;;;18.50;99.90;;;;;;5036840;28;20258;-64
2022/04/02 07:28:40;;;;;;;27.43;6.30;;;18.50;99.90;;;;;;5039842;28;20183;-65
2022/04/02 07:31:07;;;;;;;29.90;5.73;;;18.60;99.90;;;;;;5033626;28;20208;-65
2022/04/02 07:33:33;;;;;;;24.67;6.33;;;18.70;99.90;;;;;;5046153;28;20876;-66
2022/04/02 07:36:10;;;;;;;26.83;6.70;;;18.80;99.90;;;;;;5037862;28;20220;-65
2022/04/02 07:39:11;;;;;;;31.60;6.00;;;18.80;99.90;;;;;;5041554;28;20199;-65
2022/04/02 07:42:08;;;;;;;21.30;5.77;;;18.90;99.90;;;;;;5040103;28;20200;-64
2022/04/02 07:45:08;;;;;;;25.93;5.30;;;19.10;99.90;;;;;;5042450;28;20317;-65
2022/04/02 07:47:42;;;;;;;30.33;5.47;;;19.10;99.90;;;;;;5037851;28;20294;-63
2022/04/02 07:50:15;;;;;;;25.03;5.30;;;19.40;99.90;;;;;;5035802;28;20225;-65
2022/04/02 07:52:52;;;;;;;27.27;5.50;;;19.50;99.90;;;;;;5045768;28;20199;-65
2022/04/02 07:55:20;;;;;;;25.93;5.13;;;19.80;99.90;;;;;;5044942;28;20191;-65
2022/04/02 07:57:52;;;;;;;23.60;5.63;;;19.90;99.90;;;;;;5038546;28;20202;-67
2022/04/02 08:00:26;;;;;;;24.60;5.57;;;20.00;99.90;;;;;;5033076;28;20348;-65
2022/04/02 08:02:52;;;;;;;21.77;5.60;;;20.00;99.90;;;;;;5033318;28;20188;-66
2022/04/02 08:05:21;;;;;;;26.90;5.67;;;20.10;99.90;;;;;;5040177;28;20248;-67
2022/04/02 08:07:52;;;;;;;21.20;5.80;;;20.10;99.90;;;;;;5040007;28;20180;-65
2022/04/02 08:10:23;;;;;;;31.00;5.60;;;20.10;99.90;;;;;;5043040;28;20180;-67
2022/04/02 08:12:50;;;;;;;29.23;6.13;;;20.10;99.90;;;;;;5032148;28;20195;-67
2022/04/02 08:15:22;;;;;;;31.07;6.17;;;20.20;99.90;;;;;;5036184;28;20279;-64
2022/04/02 08:17:53;;;;;;;35.77;6.47;;;20.40;99.90;;;;;;5043223;28;20180;-66
2022/04/02 08:20:21;;;;;;;25.63;5.77;;;20.50;99.90;;;;;;5043159;28;20719;-66
2022/04/02 08:22:48;;;;;;;23.43;5.40;;;20.60;99.90;;;;;;5045960;28;20192;-65
2022/04/02 08:25:16;;;;;;;24.30;5.37;;;20.60;99.90;;;;;;5044742;28;20183;-65
2022/04/02 08:28:18;;;;;;;23.27;5.53;;;20.80;99.90;;;;;;5041107;28;20216;-65
2022/04/02 08:31:16;;;;;;;28.07;5.73;;;20.80;99.90;;;;;;5032782;28;20204;-67
2022/04/02 08:34:24;;;;;;;20.57;6.10;;;20.80;99.90;;;;;;5041235;28;20192;-65
2022/04/02 08:37:21;;;;;;;22.60;5.63;;;20.80;99.90;;;;;;5047328;28;20321;-66
2022/04/02 08:40:09;;;;;;;28.83;5.60;;;20.90;99.90;;;;;;5045945;28;20261;-67
2022/04/02 08:43:06;;;;;;;19.53;5.37;;;20.90;99.90;;;;;;5033032;28;20269;-65
2022/04/02 08:45:34;;;;;;;25.63;5.40;;;21.00;99.90;;;;;;5013837;28;20192;-65
2022/04/02 08:48:23;;;;;;;23.40;5.83;;;21.10;99.90;;;;;;5041563;28;20187;-65
2022/04/02 08:51:12;;;;;;;23.07;5.90;;;21.20;99.90;;;;;;5048597;28;20200;-67
2022/04/02 08:53:38;;;;;;;22.73;5.10;;;21.30;99.90;;;;;;5051146;28;20193;-67
2022/04/02 08:56:09;;;;;;;23.90;5.47;;;21.50;99.90;;;;;;5043730;28;20196;-68
2022/04/02 08:59:13;;;;;;;23.00;5.47;;;21.50;99.90;;;;;;5037855;28;20192;-67
2022/04/02 09:02:10;;;;;;;21.40;5.83;;;21.60;99.90;;;;;;5034285;28;20267;-67
2022/04/02 09:05:01;;;;;;;27.10;4.97;;;21.60;99.90;;;;;;5028551;28;20192;-68
2022/04/02 09:07:58;;;;;;;28.80;5.50;;;21.70;99.90;;;;;;5056942;28;20274;-67
2022/04/02 09:11:08;;;;;;;30.67;5.60;;;21.80;99.90;;;;;;5030237;28;20918;-67
2022/04/02 09:14:46;;;;;;;25.47;5.90;;;22.00;99.90;;;;;;5038261;28;20576;-68
2022/04/02 09:17:38;;;;;;;30.37;5.53;;;22.40;99.90;;;;;;5037200;28;20191;-67
2022/04/02 09:20:32;;;;;;;23.70;5.47;;;22.60;99.90;;;;;;5032612;28;20295;-68
2022/04/02 09:23:22;;;;;;;27.83;5.87;;;22.70;99.90;;;;;;5038091;28;20814;-67
2022/04/02 09:26:32;;;;;;;24.20;5.70;;;22.70;99.90;;;;;;5048079;28;20541;-70
2022/04/02 09:29:28;;;;;;;28.33;6.43;;;22.80;99.90;;;;;;5042969;28;20214;-70
2022/04/02 09:32:19;;;;;;;24.60;6.10;;;22.80;99.90;;;;;;5038540;28;20203;-70
2022/04/02 09:35:06;;;;;;;25.42;6.35;;;22.80;99.90;;;;;;5038355;28;20183;-69
2022/04/02 09:38:18;;;;;;;26.00;6.10;;;23.00;99.90;;;;;;5039663;28;20246;-70
2022/04/02 09:40:51;;;;;;;21.60;6.47;;;23.20;99.90;;;;;;5025551;28;20200;-69
2022/04/02 09:43:31;;;;;;;31.67;6.33;;;23.30;99.90;;;;;;5042161;28;20222;-69
2022/04/02 09:46:25;;;;;;;32.77;6.43;;;23.40;99.90;;;;;;5048652;28;20266;-70
2022/04/02 09:49:06;;;;;;;32.13;6.30;;;23.50;99.90;;;;;;5042807;28;20195;-70
2022/04/02 09:51:40;;;;;;;23.92;5.93;;;23.70;99.90;;;;;;5040936;28;20763;-69
2022/04/02 09:54:33;;;;;;;27.73;5.78;;;23.80;99.90;;;;;;5042704;28;20186;-70
2022/04/02 09:57:21;;;;;;;20.10;5.80;;;24.00;99.90;;;;;;5038936;28;20179;-70
2022/04/02 10:00:06;;;;;;;19.80;5.85;;;24.10;99.90;;;;;;5037286;28;20262;-70
2022/04/02 10:03:13;;;;;;;29.27;6.45;;;24.40;99.90;;;;;;5039142;28;20188;-69
2022/04/02 10:05:46;;;;;;;19.20;5.78;;;24.70;99.90;;;;;;5039803;28;20492;-69
2022/04/02 10:08:39;;;;;;;26.42;6.22;;;24.80;99.90;;;;;;5051609;28;20315;-69
2022/04/02 10:11:11;;;;;;;23.67;5.95;;;25.00;99.90;;;;;;5038868;28;20180;-69
2022/04/02 10:13:40;;;;;;;26.23;6.00;;;25.00;99.90;;;;;;5052564;28;20188;-69
2022/04/02 10:16:12;;;;;;;34.42;6.28;;;25.10;99.90;;;;;;5046015;28;20195;-70
2022/04/02 10:18:41;;;;;;;19.42;6.10;;;25.20;99.90;;;;;;5048127;28;20187;-69
2022/04/02 10:32:45;;;;;;;31.10;5.90;;;25.50;99.90;;;;;;5038681;28;20187;-69
2022/04/02 10:35:14;;;;;;;30.02;6.57;;;25.20;99.90;;;;;;5039682;28;20290;-69
2022/04/02 10:38:06;;;;;;;23.40;5.95;;;25.10;99.90;;;;;;5036181;28;20188;-69
2022/04/02 10:40:43;;;;;;;27.42;6.25;;;25.00;99.90;;;;;;5059596;28;20242;-69
2022/04/02 10:43:25;;;;;;;27.73;6.40;;;24.90;99.90;;;;;;5048727;28;20187;-69
2022/04/02 10:45:52;;;;;;;26.77;6.35;;;24.90;99.90;;;;;;5027330;28;20184;-68
2022/04/02 10:48:54;;;;;;;23.05;6.07;;;24.90;99.90;;;;;;5041681;28;20284;-69
2022/04/02 10:51:26;;;;;;;24.92;5.63;;;24.90;99.90;;;;;;5040669;28;20992;-70
2022/04/02 10:54:06;;;;;;;18.63;6.82;;;24.70;99.90;;;;;;5049416;28;20180;-69
2022/04/02 10:56:51;;;;;;;28.05;6.32;;;24.50;99.90;;;;;;5048799;28;20229;-69
2022/04/02 10:59:19;;;;;;;31.92;6.85;;;24.30;99.90;;;;;;5041465;28;20214;-69
2022/04/02 11:01:52;;;;;;;29.77;6.45;;;24.10;99.90;;;;;;5063984;28;20201;-69
2022/04/02 11:04:46;;;;;;;26.58;6.18;;;24.10;99.90;;;;;;5032376;28;20175;-69
2022/04/02 11:07:37;;;;;;;22.95;6.55;;;24.10;99.90;;;;;;5022859;28;20207;-68
2022/04/02 11:10:05;;;;;;;23.23;5.80;;;24.20;99.90;;;;;;5028667;28;20195;-68
2022/04/02 11:12:41;;;;;;;33.83;6.05;;;24.30;99.90;;;;;;5064046;28;20984;-69
2022/04/02 11:15:12;;;;;;;32.75;5.85;;;24.30;99.90;;;;;;5045515;28;20337;-69
2022/04/02 11:17:43;;;;;;;26.80;6.55;;;24.30;99.90;;;;;;5044200;28;20192;-68
2022/04/02 11:20:21;;;;;;;26.83;5.57;;;24.20;99.90;;;;;;5049017;28;20680;-69
2022/04/02 11:22:57;;;;;;;25.02;6.25;;;24.00;99.80;;;;;;5048892;28;20206;-69
2022/04/02 11:25:36;;;;;;;25.42;6.82;;;24.00;99.90;;;;;;5044723;28;20188;-68
2022/04/02 11:28:08;;;;;;;21.77;5.72;;;23.80;99.90;;;;;;5042185;28;20267;-69
2022/04/02 11:30:43;;;;;;;26.98;6.07;;;23.80;99.90;;;;;;5047639;28;20187;-68
2022/04/02 11:33:24;;;;;;;22.92;6.43;;;23.70;99.90;;;;;;5045235;28;20187;-68
2022/04/02 11:36:06;;;;;;;25.10;5.35;;;23.60;99.90;;;;;;5035930;28;20212;-67
2022/04/02 11:38:58;;;;;;;21.55;5.80;;;23.60;99.80;;;;;;5049019;28;20193;-69
2022/04/02 11:41:39;;;;;;;35.13;5.95;;;23.60;99.90;;;;;;5042324;28;20211;-68
2022/04/02 11:44:16;;;;;;;30.80;5.65;;;23.50;99.30;;;;;;5045895;28;20266;-68
2022/04/02 11:47:00;;;;;;;19.63;5.88;;;23.50;99.20;;;;;;5050088;28;20183;-68
2022/04/02 11:49:39;;;;;;;18.73;5.13;;;23.50;99.90;;;;;;5040287;28;20185;-68
2022/04/02 11:52:16;;;;;;;21.97;5.77;;;23.40;99.40;;;;;;5046832;28;20188;-68
2022/04/02 11:54:51;;;;;;;21.90;5.72;;;23.40;99.50;;;;;;5048106;28;20171;-68
2022/04/02 11:57:20;;;;;;;31.05;5.70;;;23.30;99.70;;;;;;5036324;28;20278;-69
2022/04/02 11:59:52;;;;;;;29.13;5.70;;;23.10;99.50;;;;;;5045897;28;20211;-68
2022/04/02 12:02:42;;;;;;;26.83;6.25;;;23.10;99.90;;;;;;5045553;28;20191;-67
2022/04/02 12:05:13;;;;;;;21.63;5.35;;;23.10;99.90;;;;;;5044481;28;20245;-68
2022/04/02 12:07:51;;;;;;;21.98;5.65;;;23.10;99.90;;;;;;5023351;28;20188;-67
2022/04/02 12:10:28;;;;;;;24.53;5.90;;;23.10;99.90;;;;;;5041343;28;20183;-68
2022/04/02 12:12:59;;;;;;;26.20;6.22;;;23.10;99.90;;;;;;5046957;28;20183;-68
2022/04/02 12:15:27;;;;;;;27.65;6.40;;;23.20;99.90;;;;;;5043632;28;20192;-67
2022/04/02 12:18:09;;;;;;;21.45;5.47;;;23.20;99.90;;;;;;5046666;28;20195;-67
2022/04/02 12:20:41;;;;;;;24.50;6.07;;;23.00;99.90;;;;;;5046828;28;20659;-68
2022/04/02 12:23:17;;;;;;;27.92;7.00;;;23.00;99.90;;;;;;5044540;28;20228;-68
2022/04/02 12:26:03;;;;;;;30.48;6.30;;;22.90;99.90;;;;;;5044452;28;20269;-68
2022/04/02 12:28:48;;;;;;;22.97;5.77;;;22.90;99.90;;;;;;5029095;28;20181;-68
2022/04/02 12:31:16;;;;;;;31.03;6.10;;;23.20;99.90;;;;;;5036757;28;20222;-68
2022/04/02 12:33:54;;;;;;;29.02;6.40;;;23.40;99.90;;;;;;5062322;28;20696;-68
2022/04/02 12:36:43;;;;;;;23.90;5.63;;;23.50;99.90;;;;;;5040602;28;20718;-68
2022/04/02 12:39:19;;;;;;;28.20;5.60;;;23.60;99.90;;;;;;5048737;28;20249;-67
2022/04/02 12:41:50;;;;;;;17.05;5.38;;;23.60;99.90;;;;;;5046574;28;20261;-68
2022/04/02 12:44:25;;;;;;;31.35;6.78;;;23.50;99.90;;;;;;5049871;28;20238;-68
2022/04/02 12:46:52;;;;;;;30.63;6.40;;;23.50;99.90;;;;;;5052651;28;20186;-67
2022/04/02 12:49:35;;;;;;;22.90;5.28;;;23.50;99.90;;;;;;5051780;28;20198;-68
2022/04/02 12:52:20;;;;;;;30.70;5.68;;;23.50;99.90;;;;;;5064842;28;20195;-68
2022/04/02 12:54:52;;;;;;;27.63;5.65;;;23.50;99.90;;;;;;5048126;28;21648;-70
2022/04/02 12:57:19;;;;;;;23.98;5.65;;;23.50;99.90;;;;;;5046823;28;20199;-69
2022/04/02 12:59:54;;;;;;;35.22;6.80;;;23.50;99.90;;;;;;5051102;28;20208;-69
2022/04/02 13:02:23;;;;;;;26.95;6.43;;;23.50;99.90;;;;;;5034052;28;20186;-68
2022/04/02 13:04:57;;;;;;;27.10;6.43;;;23.50;99.90;;;;;;5051635;28;20180;-69
2022/04/02 13:07:25;;;;;;;31.92;6.20;;;23.50;99.90;;;;;;5048060;28;20193;-70
2022/04/02 13:09:52;;;;;;;22.42;5.75;;;23.50;99.90;;;;;;5051473;28;20187;-69
2022/04/02 13:12:24;;;;;;;30.13;6.50;;;23.40;99.90;;;;;;5048885;28;20191;-69
2022/04/02 13:15:09;;;;;;;27.85;6.38;;;23.30;99.90;;;;;;5024427;28;20203;-69
2022/04/02 13:20:28;;;;;;;18.25;5.47;;;23.40;99.90;;;;;;5056864;28;20195;-69
2022/04/02 13:20:38;;;;;;;20.13;5.60;;;23.40;99.90;;;;;;5045418;28;20333;-69